createdAt,value
2023-04-01T00:01:15.553Z,7.68
2023-04-01T00:06:19.282Z,7.65
2023-04-01T00:11:21.561Z,7.62
2023-04-01T00:16:23.687Z,7.58
2023-04-01T00:21:25.725Z,7.54
2023-04-01T00:26:28.014Z,7.50
2023-04-01T00:31:31.214Z,7.48
2023-04-01T00:36:33.822Z,7.45
2023-04-01T00:41:36.103Z,7.45
2023-04-01T00:46:38.252Z,7.44
2023-04-01T00:51:42.936Z,7.45
2023-04-01T00:56:56.666Z,7.45
2023-04-01T01:01:58.504Z,7.47
2023-04-01T01:07:19.182Z,7.48
2023-04-01T01:12:41.636Z,7.49
2023-04-01T01:17:48.244Z,7.50
2023-04-01T01:22:58.814Z,7.51
2023-04-01T01:28:26.060Z,7.54
2023-04-01T01:33:45.060Z,7.56
2023-04-01T01:38:50.721Z,7.60
2023-04-01T01:43:57.259Z,7.61
2023-04-01T01:49:00.930Z,7.63
2023-04-01T01:54:03.225Z,7.64
2023-04-01T01:59:10.823Z,7.64
2023-04-01T02:04:15.345Z,7.64
2023-04-01T02:09:17.244Z,7.65
2023-04-01T02:14:37.854Z,7.66
2023-04-01T02:19:53.378Z,7.67
2023-04-01T02:25:01.677Z,7.69
2023-04-01T02:30:05.104Z,7.71
2023-04-01T02:35:13.932Z,7.70
2023-04-01T02:40:17.246Z,7.71
2023-04-01T02:45:19.629Z,7.70
2023-04-01T02:50:22.333Z,7.71
2023-04-01T02:55:24.106Z,7.71
2023-04-01T03:00:27.106Z,7.72
2023-04-01T03:05:29.192Z,7.72
2023-04-01T03:10:31.175Z,7.73
2023-04-01T03:15:33.457Z,7.73
2023-04-01T03:20:35.842Z,7.72
2023-04-01T03:25:37.617Z,7.70
2023-04-01T03:30:40.632Z,7.69
2023-04-01T03:35:42.496Z,7.66
2023-04-01T03:40:45.392Z,7.65
2023-04-01T03:45:49.156Z,7.63
2023-04-01T03:50:50.995Z,7.62
2023-04-01T03:55:53.175Z,7.61
2023-04-01T04:00:55.466Z,7.62
2023-04-01T04:05:57.345Z,7.61
2023-04-01T04:10:59.527Z,7.59
2023-04-01T04:16:01.335Z,7.60
2023-04-01T04:21:04.200Z,7.59
2023-04-01T04:26:08.643Z,7.58
2023-04-01T04:31:11.146Z,7.59
2023-04-01T04:36:14.273Z,7.58
2023-04-01T04:41:18.362Z,7.55
2023-04-01T04:46:20.674Z,7.53
2023-04-01T04:51:23.053Z,7.53
2023-04-01T04:56:26.556Z,7.55
2023-04-01T05:01:29.055Z,7.56
2023-04-01T05:06:31.949Z,7.58
2023-04-01T05:11:33.722Z,7.58
2023-04-01T05:16:36.035Z,7.59
2023-04-01T05:21:37.991Z,7.62
2023-04-01T05:26:39.764Z,7.64
2023-04-01T05:31:42.251Z,7.63
2023-04-01T05:36:44.949Z,7.59
2023-04-01T05:41:46.722Z,7.59
2023-04-01T05:46:48.504Z,7.62
2023-04-01T05:51:51.808Z,7.65
2023-04-01T05:56:53.487Z,7.67
2023-04-01T06:01:55.362Z,7.70
2023-04-01T06:06:57.249Z,7.76
2023-04-01T06:12:01.770Z,7.75
2023-04-01T06:17:25.724Z,7.74
2023-04-01T06:23:08.445Z,7.71
2023-04-01T06:28:38.361Z,7.72
2023-04-01T06:34:02.535Z,7.70
2023-04-01T06:39:22.843Z,7.69
2023-04-01T06:44:46.324Z,7.62
2023-04-01T06:50:11.358Z,7.55
2023-04-01T06:55:33.930Z,7.55
2023-04-01T07:00:40.602Z,7.58
2023-04-01T07:05:43.191Z,7.57
2023-04-01T07:10:51.007Z,7.57
2023-04-01T07:16:02.206Z,7.49
2023-04-01T07:21:05.621Z,7.40
2023-04-01T07:26:26.092Z,7.38
2023-04-01T07:31:52.740Z,7.35
2023-04-01T07:36:55.273Z,7.36
2023-04-01T07:42:16.610Z,7.37
2023-04-01T07:47:41.740Z,7.34
2023-04-01T07:53:17.092Z,7.30
2023-04-01T07:58:32.415Z,7.30
2023-04-01T08:03:50.293Z,7.28
2023-04-01T08:08:55.390Z,7.30
2023-04-01T08:14:09.858Z,7.34
2023-04-01T08:19:20.574Z,7.42
2023-04-01T08:24:47.672Z,7.58
2023-04-01T08:29:59.415Z,7.82
2023-04-01T08:35:33.010Z,8.02
2023-04-01T08:40:52.014Z,8.02
2023-04-01T08:46:14.509Z,7.98
2023-04-01T08:51:37.971Z,8.06
2023-04-01T08:57:03.311Z,8.36
2023-04-01T09:02:32.705Z,8.95
2023-04-01T09:07:56.291Z,9.55
2023-04-01T09:13:19.777Z,9.99
2023-04-01T09:18:43.277Z,10.16
2023-04-01T09:23:58.048Z,10.02
2023-04-01T09:29:15.698Z,9.91
2023-04-01T09:34:57.807Z,9.81
2023-04-01T09:40:15.970Z,9.62
2023-04-01T09:45:46.870Z,9.49
2023-04-01T09:50:57.716Z,9.40
2023-04-01T09:56:20.592Z,9.24
2023-04-01T10:01:46.572Z,9.13
2023-04-01T10:07:17.376Z,9.02
2023-04-01T10:12:59.855Z,8.91
2023-04-01T10:18:14.375Z,9.03
2023-04-01T10:23:22.096Z,9.21
2023-04-01T10:28:26.733Z,9.26
2023-04-01T10:33:49.088Z,9.28
2023-04-01T10:39:28.854Z,9.50
2023-04-01T10:44:56.035Z,9.50
2023-04-01T10:50:19.406Z,9.53
2023-04-01T10:55:42.641Z,9.56
2023-04-01T11:00:58.719Z,9.54
2023-04-01T11:06:32.104Z,9.50
2023-04-01T11:12:11.790Z,9.64
2023-04-01T11:17:32.139Z,9.82
2023-04-01T11:22:52.807Z,9.91
2023-04-01T11:28:41.987Z,9.86
2023-04-01T11:34:05.869Z,9.63
2023-04-01T11:39:11.099Z,9.39
2023-04-01T11:44:18.638Z,9.32
2023-04-01T11:49:42.324Z,9.22
2023-04-01T11:55:04.684Z,8.99
2023-04-01T12:00:34.723Z,8.65
2023-04-01T12:06:07.794Z,8.39
2023-04-01T12:11:25.071Z,8.30
2023-04-01T12:16:36.821Z,8.33
2023-04-01T12:21:44.389Z,8.38
2023-04-01T12:27:17.698Z,8.40
2023-04-01T12:32:19.758Z,8.45
2023-04-01T12:37:40.709Z,8.55
2023-04-01T12:43:21.192Z,8.53
2023-04-01T12:48:23.161Z,8.49
2023-04-01T12:53:53.101Z,8.47
2023-04-01T12:59:13.374Z,8.52
2023-04-01T13:04:18.927Z,8.54
2023-04-01T13:09:58.534Z,8.52
2023-04-01T13:15:25.999Z,8.50
2023-04-01T13:20:46.226Z,8.51
2023-04-01T13:26:02.426Z,8.52
2023-04-01T13:31:41.031Z,8.46
2023-04-01T13:37:02.847Z,8.42
2023-04-01T13:42:27.120Z,8.19
2023-04-01T13:47:51.252Z,7.94
2023-04-01T13:53:22.273Z,7.71
2023-04-01T13:58:39.509Z,7.51
2023-04-01T14:04:15.350Z,7.30
2023-04-01T14:09:49.106Z,7.16
2023-04-01T14:14:50.674Z,7.08
2023-04-01T14:20:23.988Z,7.02
2023-04-01T14:25:44.495Z,6.96
2023-04-01T14:30:56.122Z,6.93
2023-04-01T14:36:29.628Z,6.89
2023-04-01T14:41:44.610Z,6.83
2023-04-01T14:47:03.277Z,6.78
2023-04-01T14:52:30.840Z,6.76
2023-04-01T14:57:33.097Z,6.64
2023-04-01T15:02:50.520Z,6.50
2023-04-01T15:08:08.152Z,6.39
2023-04-01T15:13:30.628Z,6.34
2023-04-01T15:18:57.145Z,6.24
2023-04-01T15:24:14.102Z,6.15
2023-04-01T15:29:39.210Z,6.08
2023-04-01T15:35:05.347Z,6.06
2023-04-01T15:40:23.712Z,6.04
2023-04-01T15:45:52.723Z,5.98
2023-04-01T15:51:03.823Z,5.92
2023-04-01T15:56:25.048Z,5.88
2023-04-01T16:01:35.264Z,5.85
2023-04-01T16:07:05.558Z,5.82
2023-04-01T16:12:25.975Z,5.73
2023-04-01T16:18:02.516Z,5.64
2023-04-01T16:24:05.443Z,5.58
2023-04-01T16:29:21.988Z,5.45
2023-04-01T16:34:39.325Z,5.35
2023-04-01T16:40:05.988Z,5.27
2023-04-01T16:45:08.998Z,5.21
2023-04-01T16:50:24.206Z,5.20
2023-04-01T16:55:47.655Z,5.18
2023-04-01T17:00:52.052Z,5.16
2023-04-01T17:06:21.311Z,5.12
2023-04-01T17:11:32.002Z,5.04
2023-04-01T17:16:55.486Z,4.97
2023-04-01T17:22:19.177Z,4.93
2023-04-01T17:27:30.070Z,4.88
2023-04-01T17:33:16.686Z,4.84
2023-04-01T17:38:31.050Z,4.73
2023-04-01T17:43:48.697Z,4.68
2023-04-01T17:49:18.446Z,4.63
2023-04-01T17:54:26.858Z,4.54
2023-04-01T17:59:38.221Z,4.50
2023-04-01T18:04:58.574Z,4.47
2023-04-01T18:10:08.393Z,4.44
2023-04-01T18:15:19.316Z,4.41
2023-04-01T18:20:30.931Z,4.37
2023-04-01T18:25:43.672Z,4.33
2023-04-01T18:31:02.526Z,4.26
2023-04-01T18:36:11.303Z,4.19
2023-04-01T18:41:30.449Z,4.14
2023-04-01T18:46:52.295Z,4.13
2023-04-01T18:51:59.298Z,4.11
2023-04-01T18:57:20.943Z,4.08
2023-04-01T19:02:32.866Z,4.06
2023-04-01T19:07:38.017Z,4.06
2023-04-01T19:12:51.645Z,4.05
2023-04-01T19:17:59.628Z,4.01
2023-04-01T19:23:20.902Z,3.95
2023-04-01T19:28:51.048Z,3.89
2023-04-01T19:34:31.115Z,3.84
2023-04-01T19:39:58.072Z,3.81
2023-04-01T19:45:23.616Z,3.79
2023-04-01T19:50:38.900Z,3.77
2023-04-01T19:55:58.496Z,3.74
2023-04-01T20:01:04.067Z,3.72
2023-04-01T20:06:34.210Z,3.68
2023-04-01T20:11:36.302Z,3.65
2023-04-01T20:17:09.295Z,3.61
2023-04-01T20:22:35.867Z,3.57
2023-04-01T20:27:50.806Z,3.55
2023-04-01T20:33:11.647Z,3.52
2023-04-01T20:38:40.702Z,3.51
2023-04-01T20:44:35.690Z,3.50
2023-04-01T20:49:42.414Z,3.46
2023-04-01T20:54:56.340Z,3.43
2023-04-01T21:00:36.615Z,3.39
2023-04-01T21:05:41.371Z,3.37
2023-04-01T21:11:02.802Z,3.34
2023-04-01T21:16:27.674Z,3.34
2023-04-01T21:21:52.014Z,3.34
2023-04-01T21:27:14.804Z,3.34
2023-04-01T21:32:54.280Z,3.32
2023-04-01T21:37:59.095Z,3.29
2023-04-01T21:43:17.051Z,3.28
2023-04-01T21:48:45.262Z,3.27
2023-04-01T21:54:25.334Z,3.25
2023-04-01T21:59:36.325Z,3.24
2023-04-01T22:05:14.322Z,3.20
2023-04-01T22:10:23.678Z,3.16
2023-04-01T22:15:55.999Z,3.11
2023-04-01T22:21:07.286Z,3.05
2023-04-01T22:26:31.018Z,2.98
2023-04-01T22:31:46.986Z,2.90
2023-04-01T22:37:07.694Z,2.83
2023-04-01T22:42:39.778Z,2.75
2023-04-01T22:47:57.981Z,2.67
2023-04-01T22:53:29.801Z,2.57
2023-04-01T22:58:39.199Z,2.50
2023-04-01T23:03:45.034Z,2.43
2023-04-01T23:09:14.361Z,2.38
2023-04-01T23:14:27.182Z,2.34
2023-04-01T23:20:01.120Z,2.31
2023-04-01T23:25:21.218Z,2.28
2023-04-01T23:30:41.017Z,2.24
2023-04-01T23:35:49.277Z,2.14
2023-04-01T23:40:54.192Z,1.99
2023-04-01T23:45:56.898Z,1.85
2023-04-01T23:50:59.788Z,1.71
2023-04-01T23:56:05.142Z,1.58
